Kings Canyon National Pk, California
Current Conditions -  °F | °C
As of 5:56 AM on Friday 24 Oct 2014 (Local Time) from KBIH Reporting Station
Clear Clear  
Wind Chill: 35°   Ceiling: Unl
Heat Index: 39°   Visibility: 10mi
Dew Point: 24°   Wind: 6mph
Humidity: 55%   Direction: 340°NNW
Pressure: 30.1"   Gusts: NA
Location:  36.7872°N, 118.66°W
Report Text: KBIH 241256Z AUTO 34005KT 10SM CLR 04/M04 A3010 RMK AO2 SLP168 T00391044
Loading
Personal Weather Stations






























Interactive Weather Map New forecast layout! Learn more

10-Day Weather Forecast

Advertisements
Track Severe Weather on mobile